sensor_id;sensor_type;location;lat;lon;timestamp;P1;durP1;ratioP1;P2;durP2;ratioP2
23360;SDS011;11852;50.082;18.554;2023-06-19T00:00:48;12.3;;;9.6;;
23360;SDS011;11852;50.082;18.554;2023-06-19T00:01:53;12.6;;;9.3;;
23360;SDS011;11852;50.082;18.554;2023-06-19T00:03:00;14.0;;;9.8;;
23360;SDS011;11852;50.082;18.554;2023-06-19T00:04:05;13.9;;;9.6;;
23360;SDS011;11852;50.082;18.554;2023-06-19T00:05:10;12.8;;;9.0;;
23360;SDS011;11852;50.082;18.554;2023-06-19T00:06:15;13.2;;;9.6;;
23360;SDS011;11852;50.082;18.554;2023-06-19T00:07:20;13.0;;;8.9;;
23360;SDS011;11852;50.082;18.554;2023-06-19T00:08:25;14.9;;;8.8;;
23360;SDS011;11852;50.082;18.554;2023-06-19T00:09:30;15.9;;;9.0;;
23360;SDS011;11852;50.082;18.554;2023-06-19T00:10:35;12.9;;;9.0;;
23360;SDS011;11852;50.082;18.554;2023-06-19T00:11:40;11.9;;;8.7;;
23360;SDS011;11852;50.082;18.554;2023-06-19T00:12:45;12.8;;;8.3;;
23360;SDS011;11852;50.082;18.554;2023-06-19T00:13:49;14.1;;;8.3;;
23360;SDS011;11852;50.082;18.554;2023-06-19T00:14:54;11.8;;;8.2;;
23360;SDS011;11852;50.082;18.554;2023-06-19T00:15:59;14.1;;;8.2;;
23360;SDS011;11852;50.082;18.554;2023-06-19T00:17:04;12.2;;;7.8;;
23360;SDS011;11852;50.082;18.554;2023-06-19T00:18:09;12.0;;;8.0;;
23360;SDS011;11852;50.082;18.554;2023-06-19T00:19:15;10.2;;;8.0;;
23360;SDS011;11852;50.082;18.554;2023-06-19T00:20:20;11.9;;;8.5;;
23360;SDS011;11852;50.082;18.554;2023-06-19T00:21:25;11.5;;;7.8;;
23360;SDS011;11852;50.082;18.554;2023-06-19T00:22:30;12.6;;;7.9;;
23360;SDS011;11852;50.082;18.554;2023-06-19T00:23:34;12.1;;;8.4;;
23360;SDS011;11852;50.082;18.554;2023-06-19T00:24:41;11.1;;;8.0;;
23360;SDS011;11852;50.082;18.554;2023-06-19T00:25:45;12.1;;;8.5;;
23360;SDS011;11852;50.082;18.554;2023-06-19T00:26:50;13.0;;;8.2;;
23360;SDS011;11852;50.082;18.554;2023-06-19T00:27:56;11.4;;;8.1;;
23360;SDS011;11852;50.082;18.554;2023-06-19T00:29:02;13.0;;;8.6;;
23360;SDS011;11852;50.082;18.554;2023-06-19T00:30:08;11.2;;;7.8;;
23360;SDS011;11852;50.082;18.554;2023-06-19T00:31:14;12.2;;;8.8;;
23360;SDS011;11852;50.082;18.554;2023-06-19T00:32:19;11.6;;;8.0;;
23360;SDS011;11852;50.082;18.554;2023-06-19T00:33:26;10.9;;;8.0;;
23360;SDS011;11852;50.082;18.554;2023-06-19T00:34:31;12.7;;;8.7;;
23360;SDS011;11852;50.082;18.554;2023-06-19T00:35:36;11.1;;;8.2;;
23360;SDS011;11852;50.082;18.554;2023-06-19T00:36:44;11.8;;;8.3;;
23360;SDS011;11852;50.082;18.554;2023-06-19T00:37:49;12.2;;;7.6;;
23360;SDS011;11852;50.082;18.554;2023-06-19T00:38:54;11.4;;;7.9;;
23360;SDS011;11852;50.082;18.554;2023-06-19T00:40:00;11.9;;;7.6;;
23360;SDS011;11852;50.082;18.554;2023-06-19T00:41:05;12.3;;;7.3;;
23360;SDS011;11852;50.082;18.554;2023-06-19T00:42:10;15.6;;;8.1;;
23360;SDS011;11852;50.082;18.554;2023-06-19T00:43:15;12.0;;;8.2;;
23360;SDS011;11852;50.082;18.554;2023-06-19T00:44:20;11.8;;;8.0;;
23360;SDS011;11852;50.082;18.554;2023-06-19T00:45:25;12.1;;;8.4;;
23360;SDS011;11852;50.082;18.554;2023-06-19T00:46:30;11.5;;;7.9;;
23360;SDS011;11852;50.082;18.554;2023-06-19T00:47:35;11.9;;;7.7;;
23360;SDS011;11852;50.082;18.554;2023-06-19T00:48:40;10.2;;;8.0;;
23360;SDS011;11852;50.082;18.554;2023-06-19T00:49:46;11.8;;;8.4;;
23360;SDS011;11852;50.082;18.554;2023-06-19T00:50:51;11.8;;;7.8;;
23360;SDS011;11852;50.082;18.554;2023-06-19T00:51:56;12.7;;;8.5;;
23360;SDS011;11852;50.082;18.554;2023-06-19T00:53:01;10.9;;;8.3;;
23360;SDS011;11852;50.082;18.554;2023-06-19T00:54:07;11.7;;;8.1;;
23360;SDS011;11852;50.082;18.554;2023-06-19T00:55:14;11.5;;;7.8;;
23360;SDS011;11852;50.082;18.554;2023-06-19T00:56:18;10.7;;;8.1;;
23360;SDS011;11852;50.082;18.554;2023-06-19T00:57:23;11.8;;;8.5;;
23360;SDS011;11852;50.082;18.554;2023-06-19T00:58:29;13.6;;;8.6;;
23360;SDS011;11852;50.082;18.554;2023-06-19T00:59:34;11.2;;;8.0;;
23360;SDS011;11852;50.082;18.554;2023-06-19T01:00:39;12.1;;;8.4;;
23360;SDS011;11852;50.082;18.554;2023-06-19T01:01:44;10.5;;;8.5;;
23360;SDS011;11852;50.082;18.554;2023-06-19T01:02:50;10.9;;;7.9;;
23360;SDS011;11852;50.082;18.554;2023-06-19T01:03:55;11.4;;;7.6;;
23360;SDS011;11852;50.082;18.554;2023-06-19T01:05:01;12.0;;;8.6;;
23360;SDS011;11852;50.082;18.554;2023-06-19T01:06:10;12.5;;;8.2;;
23360;SDS011;11852;50.082;18.554;2023-06-19T01:07:11;11.8;;;7.8;;
23360;SDS011;11852;50.082;18.554;2023-06-19T01:09:29;10.7;;;7.3;;
23360;SDS011;11852;50.082;18.554;2023-06-19T01:10:36;11.2;;;8.1;;
23360;SDS011;11852;50.082;18.554;2023-06-19T01:11:42;11.2;;;7.9;;
23360;SDS011;11852;50.082;18.554;2023-06-19T01:12:53;12.6;;;8.2;;
23360;SDS011;11852;50.082;18.554;2023-06-19T01:14:00;11.0;;;8.0;;
23360;SDS011;11852;50.082;18.554;2023-06-19T01:15:04;10.8;;;7.2;;
23360;SDS011;11852;50.082;18.554;2023-06-19T01:16:09;13.5;;;8.0;;
23360;SDS011;11852;50.082;18.554;2023-06-19T01:17:14;10.4;;;7.0;;
23360;SDS011;11852;50.082;18.554;2023-06-19T01:18:20;11.2;;;7.7;;
23360;SDS011;11852;50.082;18.554;2023-06-19T01:19:25;9.3;;;7.0;;
23360;SDS011;11852;50.082;18.554;2023-06-19T01:20:30;12.3;;;7.7;;
23360;SDS011;11852;50.082;18.554;2023-06-19T01:21:35;10.8;;;7.6;;
23360;SDS011;11852;50.082;18.554;2023-06-19T01:22:40;11.6;;;8.3;;
23360;SDS011;11852;50.082;18.554;2023-06-19T01:23:44;11.2;;;7.6;;
23360;SDS011;11852;50.082;18.554;2023-06-19T01:24:51;10.8;;;7.9;;
23360;SDS011;11852;50.082;18.554;2023-06-19T01:25:56;12.2;;;8.1;;
23360;SDS011;11852;50.082;18.554;2023-06-19T01:27:00;10.3;;;8.2;;
23360;SDS011;11852;50.082;18.554;2023-06-19T01:28:06;11.0;;;7.6;;
23360;SDS011;11852;50.082;18.554;2023-06-19T01:29:12;13.5;;;8.0;;
23360;SDS011;11852;50.082;18.554;2023-06-19T01:30:16;11.8;;;8.4;;
23360;SDS011;11852;50.082;18.554;2023-06-19T01:31:22;13.1;;;7.7;;
23360;SDS011;11852;50.082;18.554;2023-06-19T01:32:31;12.4;;;7.8;;
23360;SDS011;11852;50.082;18.554;2023-06-19T01:33:34;14.8;;;8.4;;
23360;SDS011;11852;50.082;18.554;2023-06-19T01:34:39;13.3;;;8.4;;
23360;SDS011;11852;50.082;18.554;2023-06-19T01:35:44;11.0;;;8.1;;
23360;SDS011;11852;50.082;18.554;2023-06-19T01:36:49;12.3;;;8.3;;
23360;SDS011;11852;50.082;18.554;2023-06-19T01:37:54;11.1;;;8.4;;
23360;SDS011;11852;50.082;18.554;2023-06-19T01:39:00;13.3;;;8.5;;
23360;SDS011;11852;50.082;18.554;2023-06-19T01:40:05;11.5;;;7.8;;
23360;SDS011;11852;50.082;18.554;2023-06-19T01:41:10;12.8;;;9.1;;
23360;SDS011;11852;50.082;18.554;2023-06-19T01:42:16;12.2;;;8.5;;
23360;SDS011;11852;50.082;18.554;2023-06-19T01:43:21;11.1;;;8.2;;
23360;SDS011;11852;50.082;18.554;2023-06-19T01:44:27;11.5;;;8.1;;
23360;SDS011;11852;50.082;18.554;2023-06-19T01:45:32;10.7;;;7.6;;
23360;SDS011;11852;50.082;18.554;2023-06-19T01:46:36;11.1;;;8.1;;
23360;SDS011;11852;50.082;18.554;2023-06-19T01:47:41;12.6;;;8.3;;
23360;SDS011;11852;50.082;18.554;2023-06-19T01:48:46;11.6;;;7.7;;
23360;SDS011;11852;50.082;18.554;2023-06-19T01:49:51;11.9;;;8.1;;
23360;SDS011;11852;50.082;18.554;2023-06-19T01:50:56;11.3;;;7.7;;
23360;SDS011;11852;50.082;18.554;2023-06-19T01:52:01;12.4;;;7.8;;
23360;SDS011;11852;50.082;18.554;2023-06-19T01:53:06;10.6;;;7.3;;
23360;SDS011;11852;50.082;18.554;2023-06-19T01:54:11;11.2;;;8.1;;
23360;SDS011;11852;50.082;18.554;2023-06-19T01:55:16;10.0;;;7.6;;
23360;SDS011;11852;50.082;18.554;2023-06-19T01:56:21;10.3;;;7.4;;
23360;SDS011;11852;50.082;18.554;2023-06-19T01:57:27;12.2;;;7.7;;
23360;SDS011;11852;50.082;18.554;2023-06-19T01:58:33;11.7;;;8.6;;
23360;SDS011;11852;50.082;18.554;2023-06-19T01:59:38;13.6;;;8.2;;
23360;SDS011;11852;50.082;18.554;2023-06-19T02:00:43;11.9;;;8.9;;
23360;SDS011;11852;50.082;18.554;2023-06-19T02:01:47;13.3;;;9.1;;
23360;SDS011;11852;50.082;18.554;2023-06-19T02:02:52;12.5;;;9.3;;
23360;SDS011;11852;50.082;18.554;2023-06-19T02:03:57;12.7;;;9.2;;
23360;SDS011;11852;50.082;18.554;2023-06-19T02:05:02;11.6;;;9.0;;
23360;SDS011;11852;50.082;18.554;2023-06-19T02:06:08;12.4;;;9.0;;
23360;SDS011;11852;50.082;18.554;2023-06-19T02:07:14;13.5;;;8.6;;
23360;SDS011;11852;50.082;18.554;2023-06-19T02:08:19;14.1;;;9.3;;
23360;SDS011;11852;50.082;18.554;2023-06-19T02:09:24;10.8;;;8.7;;
23360;SDS011;11852;50.082;18.554;2023-06-19T02:10:31;11.1;;;8.3;;
23360;SDS011;11852;50.082;18.554;2023-06-19T02:11:37;13.6;;;9.5;;
23360;SDS011;11852;50.082;18.554;2023-06-19T02:12:41;11.5;;;8.6;;
23360;SDS011;11852;50.082;18.554;2023-06-19T02:13:47;11.7;;;8.4;;
23360;SDS011;11852;50.082;18.554;2023-06-19T02:14:52;10.7;;;8.1;;
23360;SDS011;11852;50.082;18.554;2023-06-19T02:15:57;13.1;;;8.8;;
23360;SDS011;11852;50.082;18.554;2023-06-19T02:17:03;12.0;;;8.1;;
23360;SDS011;11852;50.082;18.554;2023-06-19T02:18:08;11.1;;;7.9;;
23360;SDS011;11852;50.082;18.554;2023-06-19T02:19:13;13.1;;;8.5;;
23360;SDS011;11852;50.082;18.554;2023-06-19T02:20:17;18.6;;;8.3;;
23360;SDS011;11852;50.082;18.554;2023-06-19T02:21:23;11.8;;;7.8;;
23360;SDS011;11852;50.082;18.554;2023-06-19T02:22:28;12.2;;;8.0;;
23360;SDS011;11852;50.082;18.554;2023-06-19T02:23:33;16.2;;;8.8;;
23360;SDS011;11852;50.082;18.554;2023-06-19T02:24:38;13.2;;;8.6;;
23360;SDS011;11852;50.082;18.554;2023-06-19T02:25:43;14.3;;;8.5;;
23360;SDS011;11852;50.082;18.554;2023-06-19T02:26:48;11.2;;;8.4;;
23360;SDS011;11852;50.082;18.554;2023-06-19T02:27:52;12.7;;;8.6;;
23360;SDS011;11852;50.082;18.554;2023-06-19T02:28:57;12.8;;;8.5;;
23360;SDS011;11852;50.082;18.554;2023-06-19T02:30:02;12.2;;;7.9;;
23360;SDS011;11852;50.082;18.554;2023-06-19T02:31:07;13.4;;;8.5;;
23360;SDS011;11852;50.082;18.554;2023-06-19T02:32:12;11.6;;;8.1;;
23360;SDS011;11852;50.082;18.554;2023-06-19T02:33:17;12.9;;;8.5;;
23360;SDS011;11852;50.082;18.554;2023-06-19T02:34:22;11.9;;;7.9;;
23360;SDS011;11852;50.082;18.554;2023-06-19T02:35:28;12.0;;;8.1;;
23360;SDS011;11852;50.082;18.554;2023-06-19T02:36:33;12.4;;;8.6;;
23360;SDS011;11852;50.082;18.554;2023-06-19T02:37:39;12.3;;;8.1;;
23360;SDS011;11852;50.082;18.554;2023-06-19T02:38:47;12.8;;;8.6;;
23360;SDS011;11852;50.082;18.554;2023-06-19T02:39:57;15.1;;;8.7;;
23360;SDS011;11852;50.082;18.554;2023-06-19T02:41:02;14.6;;;9.9;;
23360;SDS011;11852;50.082;18.554;2023-06-19T02:42:07;13.9;;;9.2;;
23360;SDS011;11852;50.082;18.554;2023-06-19T02:43:12;17.2;;;9.4;;
23360;SDS011;11852;50.082;18.554;2023-06-19T02:44:18;14.3;;;9.1;;
23360;SDS011;11852;50.082;18.554;2023-06-19T02:45:23;14.2;;;9.0;;
23360;SDS011;11852;50.082;18.554;2023-06-19T02:46:29;15.9;;;8.9;;
23360;SDS011;11852;50.082;18.554;2023-06-19T02:47:34;23.1;;;9.3;;
23360;SDS011;11852;50.082;18.554;2023-06-19T02:48:38;15.2;;;8.9;;
23360;SDS011;11852;50.082;18.554;2023-06-19T02:49:43;13.7;;;8.1;;
23360;SDS011;11852;50.082;18.554;2023-06-19T02:50:48;13.0;;;8.5;;
23360;SDS011;11852;50.082;18.554;2023-06-19T02:51:53;14.4;;;8.5;;
23360;SDS011;11852;50.082;18.554;2023-06-19T02:52:58;14.2;;;8.7;;
23360;SDS011;11852;50.082;18.554;2023-06-19T02:54:03;16.8;;;8.8;;
23360;SDS011;11852;50.082;18.554;2023-06-19T02:55:08;12.8;;;8.8;;
23360;SDS011;11852;50.082;18.554;2023-06-19T02:56:14;13.8;;;8.4;;
23360;SDS011;11852;50.082;18.554;2023-06-19T02:57:18;12.6;;;8.5;;
23360;SDS011;11852;50.082;18.554;2023-06-19T02:58:23;12.6;;;8.6;;
23360;SDS011;11852;50.082;18.554;2023-06-19T02:59:29;15.1;;;9.4;;
23360;SDS011;11852;50.082;18.554;2023-06-19T03:00:34;12.0;;;8.5;;
23360;SDS011;11852;50.082;18.554;2023-06-19T03:01:39;13.2;;;8.8;;
23360;SDS011;11852;50.082;18.554;2023-06-19T03:02:44;13.6;;;8.1;;
23360;SDS011;11852;50.082;18.554;2023-06-19T03:03:49;12.6;;;9.1;;
23360;SDS011;11852;50.082;18.554;2023-06-19T03:04:54;11.4;;;8.1;;
23360;SDS011;11852;50.082;18.554;2023-06-19T03:06:01;11.3;;;8.2;;
23360;SDS011;11852;50.082;18.554;2023-06-19T03:07:07;13.0;;;8.6;;
23360;SDS011;11852;50.082;18.554;2023-06-19T03:08:12;14.2;;;8.5;;
23360;SDS011;11852;50.082;18.554;2023-06-19T03:09:18;13.8;;;7.7;;
23360;SDS011;11852;50.082;18.554;2023-06-19T03:10:23;11.5;;;8.4;;
23360;SDS011;11852;50.082;18.554;2023-06-19T03:11:28;11.8;;;7.8;;
23360;SDS011;11852;50.082;18.554;2023-06-19T03:12:33;11.3;;;7.8;;
23360;SDS011;11852;50.082;18.554;2023-06-19T03:14:50;11.6;;;7.7;;
23360;SDS011;11852;50.082;18.554;2023-06-19T03:15:55;11.7;;;7.8;;
23360;SDS011;11852;50.082;18.554;2023-06-19T03:17:00;12.4;;;8.1;;
23360;SDS011;11852;50.082;18.554;2023-06-19T03:18:05;13.4;;;8.1;;
23360;SDS011;11852;50.082;18.554;2023-06-19T03:19:10;10.8;;;7.6;;
23360;SDS011;11852;50.082;18.554;2023-06-19T03:20:15;11.9;;;7.7;;
23360;SDS011;11852;50.082;18.554;2023-06-19T03:21:19;11.1;;;8.0;;
23360;SDS011;11852;50.082;18.554;2023-06-19T03:22:24;11.7;;;8.0;;
23360;SDS011;11852;50.082;18.554;2023-06-19T03:23:30;11.4;;;7.8;;
23360;SDS011;11852;50.082;18.554;2023-06-19T03:24:34;15.5;;;8.4;;
23360;SDS011;11852;50.082;18.554;2023-06-19T03:25:41;11.7;;;8.0;;
23360;SDS011;11852;50.082;18.554;2023-06-19T03:26:46;13.2;;;9.3;;
23360;SDS011;11852;50.082;18.554;2023-06-19T03:27:52;15.9;;;8.4;;
23360;SDS011;11852;50.082;18.554;2023-06-19T03:28:57;12.9;;;8.7;;
23360;SDS011;11852;50.082;18.554;2023-06-19T03:30:02;13.5;;;8.6;;
23360;SDS011;11852;50.082;18.554;2023-06-19T03:31:09;12.3;;;8.4;;
23360;SDS011;11852;50.082;18.554;2023-06-19T03:32:13;13.0;;;8.6;;
23360;SDS011;11852;50.082;18.554;2023-06-19T03:33:18;13.7;;;7.9;;
23360;SDS011;11852;50.082;18.554;2023-06-19T03:34:23;14.8;;;7.8;;
23360;SDS011;11852;50.082;18.554;2023-06-19T03:35:29;13.1;;;8.0;;
23360;SDS011;11852;50.082;18.554;2023-06-19T03:36:34;15.8;;;8.0;;
23360;SDS011;11852;50.082;18.554;2023-06-19T03:37:41;12.9;;;7.8;;
23360;SDS011;11852;50.082;18.554;2023-06-19T03:38:45;13.7;;;7.7;;
23360;SDS011;11852;50.082;18.554;2023-06-19T03:39:50;14.6;;;7.7;;
23360;SDS011;11852;50.082;18.554;2023-06-19T03:40:55;13.7;;;7.2;;
23360;SDS011;11852;50.082;18.554;2023-06-19T03:42:00;14.3;;;7.4;;
23360;SDS011;11852;50.082;18.554;2023-06-19T03:43:06;13.4;;;7.9;;
23360;SDS011;11852;50.082;18.554;2023-06-19T03:44:10;13.6;;;7.7;;
23360;SDS011;11852;50.082;18.554;2023-06-19T03:45:15;14.0;;;7.4;;
23360;SDS011;11852;50.082;18.554;2023-06-19T03:46:20;12.8;;;7.5;;
23360;SDS011;11852;50.082;18.554;2023-06-19T03:47:25;12.2;;;7.4;;
23360;SDS011;11852;50.082;18.554;2023-06-19T03:48:30;11.9;;;7.6;;
23360;SDS011;11852;50.082;18.554;2023-06-19T03:49:35;15.4;;;7.8;;
23360;SDS011;11852;50.082;18.554;2023-06-19T03:50:40;12.7;;;7.6;;
23360;SDS011;11852;50.082;18.554;2023-06-19T03:51:46;13.4;;;7.6;;
23360;SDS011;11852;50.082;18.554;2023-06-19T03:52:52;12.1;;;7.1;;
23360;SDS011;11852;50.082;18.554;2023-06-19T03:53:57;11.5;;;7.2;;
23360;SDS011;11852;50.082;18.554;2023-06-19T03:55:02;14.2;;;7.6;;
23360;SDS011;11852;50.082;18.554;2023-06-19T03:56:07;13.2;;;6.8;;
23360;SDS011;11852;50.082;18.554;2023-06-19T03:57:11;15.0;;;7.4;;
23360;SDS011;11852;50.082;18.554;2023-06-19T03:58:17;12.2;;;7.0;;
23360;SDS011;11852;50.082;18.554;2023-06-19T03:59:22;12.1;;;7.4;;
23360;SDS011;11852;50.082;18.554;2023-06-19T04:00:28;13.4;;;7.3;;
23360;SDS011;11852;50.082;18.554;2023-06-19T04:01:33;12.1;;;6.5;;
23360;SDS011;11852;50.082;18.554;2023-06-19T04:02:40;11.8;;;6.3;;
23360;SDS011;11852;50.082;18.554;2023-06-19T04:03:46;10.1;;;6.7;;
23360;SDS011;11852;50.082;18.554;2023-06-19T04:04:51;12.3;;;6.6;;
23360;SDS011;11852;50.082;18.554;2023-06-19T04:05:56;13.8;;;6.7;;
23360;SDS011;11852;50.082;18.554;2023-06-19T04:07:01;14.9;;;6.9;;
23360;SDS011;11852;50.082;18.554;2023-06-19T04:08:06;13.7;;;6.7;;
23360;SDS011;11852;50.082;18.554;2023-06-19T04:09:11;13.3;;;8.3;;
23360;SDS011;11852;50.082;18.554;2023-06-19T04:10:16;15.6;;;9.0;;
23360;SDS011;11852;50.082;18.554;2023-06-19T04:11:20;13.3;;;9.0;;
23360;SDS011;11852;50.082;18.554;2023-06-19T04:12:25;16.4;;;9.1;;
23360;SDS011;11852;50.082;18.554;2023-06-19T04:13:31;14.6;;;8.6;;
23360;SDS011;11852;50.082;18.554;2023-06-19T04:14:36;12.1;;;8.4;;
23360;SDS011;11852;50.082;18.554;2023-06-19T04:15:43;11.7;;;7.7;;
23360;SDS011;11852;50.082;18.554;2023-06-19T04:16:49;12.9;;;8.0;;
23360;SDS011;11852;50.082;18.554;2023-06-19T04:17:54;11.9;;;7.5;;
23360;SDS011;11852;50.082;18.554;2023-06-19T04:18:58;11.6;;;7.8;;
23360;SDS011;11852;50.082;18.554;2023-06-19T04:20:04;10.8;;;7.3;;
23360;SDS011;11852;50.082;18.554;2023-06-19T04:21:11;15.6;;;7.5;;
23360;SDS011;11852;50.082;18.554;2023-06-19T04:22:15;13.2;;;7.1;;
23360;SDS011;11852;50.082;18.554;2023-06-19T04:23:20;11.6;;;7.2;;
23360;SDS011;11852;50.082;18.554;2023-06-19T04:24:25;13.7;;;7.0;;
23360;SDS011;11852;50.082;18.554;2023-06-19T04:25:29;12.6;;;7.1;;
23360;SDS011;11852;50.082;18.554;2023-06-19T04:26:34;12.4;;;6.6;;
23360;SDS011;11852;50.082;18.554;2023-06-19T04:27:39;13.9;;;7.3;;
23360;SDS011;11852;50.082;18.554;2023-06-19T04:28:45;12.4;;;7.5;;
23360;SDS011;11852;50.082;18.554;2023-06-19T04:29:50;12.7;;;7.2;;
23360;SDS011;11852;50.082;18.554;2023-06-19T04:30:55;11.1;;;7.4;;
23360;SDS011;11852;50.082;18.554;2023-06-19T04:32:01;11.6;;;7.6;;
23360;SDS011;11852;50.082;18.554;2023-06-19T04:33:06;13.0;;;8.2;;
23360;SDS011;11852;50.082;18.554;2023-06-19T04:34:11;12.4;;;8.1;;
23360;SDS011;11852;50.082;18.554;2023-06-19T04:35:15;16.0;;;8.0;;
23360;SDS011;11852;50.082;18.554;2023-06-19T04:36:20;14.8;;;8.1;;
23360;SDS011;11852;50.082;18.554;2023-06-19T04:37:27;19.0;;;8.1;;
23360;SDS011;11852;50.082;18.554;2023-06-19T04:38:32;13.8;;;8.4;;
23360;SDS011;11852;50.082;18.554;2023-06-19T04:39:37;15.0;;;8.4;;
23360;SDS011;11852;50.082;18.554;2023-06-19T04:40:42;15.6;;;8.5;;
23360;SDS011;11852;50.082;18.554;2023-06-19T04:41:47;17.6;;;8.4;;
23360;SDS011;11852;50.082;18.554;2023-06-19T04:42:51;15.7;;;8.2;;
23360;SDS011;11852;50.082;18.554;2023-06-19T04:43:56;18.5;;;9.2;;
23360;SDS011;11852;50.082;18.554;2023-06-19T04:45:02;18.2;;;8.1;;
23360;SDS011;11852;50.082;18.554;2023-06-19T04:46:07;15.4;;;8.7;;
23360;SDS011;11852;50.082;18.554;2023-06-19T04:47:13;17.0;;;8.3;;
23360;SDS011;11852;50.082;18.554;2023-06-19T04:48:19;14.6;;;8.0;;
23360;SDS011;11852;50.082;18.554;2023-06-19T04:49:24;16.6;;;8.8;;
23360;SDS011;11852;50.082;18.554;2023-06-19T04:50:30;15.2;;;8.4;;
23360;SDS011;11852;50.082;18.554;2023-06-19T04:51:35;16.8;;;8.5;;
23360;SDS011;11852;50.082;18.554;2023-06-19T04:52:40;16.8;;;8.2;;
23360;SDS011;11852;50.082;18.554;2023-06-19T04:53:45;21.6;;;8.9;;
23360;SDS011;11852;50.082;18.554;2023-06-19T04:54:50;16.5;;;8.7;;
23360;SDS011;11852;50.082;18.554;2023-06-19T04:55:55;17.8;;;8.9;;
23360;SDS011;11852;50.082;18.554;2023-06-19T04:57:01;20.5;;;8.2;;
23360;SDS011;11852;50.082;18.554;2023-06-19T04:58:06;18.7;;;8.5;;
23360;SDS011;11852;50.082;18.554;2023-06-19T04:59:11;20.5;;;8.1;;
23360;SDS011;11852;50.082;18.554;2023-06-19T05:00:16;14.0;;;7.2;;
23360;SDS011;11852;50.082;18.554;2023-06-19T05:01:21;14.8;;;7.4;;
23360;SDS011;11852;50.082;18.554;2023-06-19T05:02:26;14.2;;;8.4;;
23360;SDS011;11852;50.082;18.554;2023-06-19T05:03:31;15.2;;;8.3;;
23360;SDS011;11852;50.082;18.554;2023-06-19T05:04:36;13.6;;;8.1;;
23360;SDS011;11852;50.082;18.554;2023-06-19T05:05:41;13.8;;;8.0;;
23360;SDS011;11852;50.082;18.554;2023-06-19T05:06:46;14.4;;;7.6;;
23360;SDS011;11852;50.082;18.554;2023-06-19T05:07:52;13.7;;;7.1;;
23360;SDS011;11852;50.082;18.554;2023-06-19T05:08:58;12.9;;;7.6;;
23360;SDS011;11852;50.082;18.554;2023-06-19T05:10:03;13.1;;;7.5;;
23360;SDS011;11852;50.082;18.554;2023-06-19T05:11:08;13.6;;;7.7;;
23360;SDS011;11852;50.082;18.554;2023-06-19T05:12:13;16.6;;;8.0;;
23360;SDS011;11852;50.082;18.554;2023-06-19T05:13:18;14.3;;;7.2;;
23360;SDS011;11852;50.082;18.554;2023-06-19T05:14:23;15.5;;;7.2;;
23360;SDS011;11852;50.082;18.554;2023-06-19T05:15:29;13.2;;;7.6;;
23360;SDS011;11852;50.082;18.554;2023-06-19T05:16:35;14.5;;;8.0;;
23360;SDS011;11852;50.082;18.554;2023-06-19T05:17:40;15.9;;;7.9;;
23360;SDS011;11852;50.082;18.554;2023-06-19T05:18:45;20.6;;;8.2;;
23360;SDS011;11852;50.082;18.554;2023-06-19T05:19:50;21.8;;;8.8;;
23360;SDS011;11852;50.082;18.554;2023-06-19T05:20:55;14.3;;;9.0;;
23360;SDS011;11852;50.082;18.554;2023-06-19T05:22:01;16.3;;;7.9;;
23360;SDS011;11852;50.082;18.554;2023-06-19T05:23:09;17.1;;;8.0;;
23360;SDS011;11852;50.082;18.554;2023-06-19T05:24:14;17.5;;;8.2;;
23360;SDS011;11852;50.082;18.554;2023-06-19T05:25:18;14.5;;;8.0;;
23360;SDS011;11852;50.082;18.554;2023-06-19T05:26:23;17.5;;;7.9;;
23360;SDS011;11852;50.082;18.554;2023-06-19T05:27:28;18.7;;;8.0;;
23360;SDS011;11852;50.082;18.554;2023-06-19T05:28:33;15.8;;;8.4;;
23360;SDS011;11852;50.082;18.554;2023-06-19T05:29:38;17.7;;;7.9;;
23360;SDS011;11852;50.082;18.554;2023-06-19T05:30:45;15.4;;;7.8;;
23360;SDS011;11852;50.082;18.554;2023-06-19T05:31:50;15.0;;;7.4;;
23360;SDS011;11852;50.082;18.554;2023-06-19T05:32:56;14.7;;;8.2;;
23360;SDS011;11852;50.082;18.554;2023-06-19T05:34:01;16.6;;;7.8;;
23360;SDS011;11852;50.082;18.554;2023-06-19T05:35:07;17.9;;;6.8;;
23360;SDS011;11852;50.082;18.554;2023-06-19T05:36:12;16.0;;;7.3;;
23360;SDS011;11852;50.082;18.554;2023-06-19T05:37:17;13.9;;;6.6;;
23360;SDS011;11852;50.082;18.554;2023-06-19T05:38:22;12.5;;;6.4;;
23360;SDS011;11852;50.082;18.554;2023-06-19T05:39:27;11.5;;;6.1;;
23360;SDS011;11852;50.082;18.554;2023-06-19T05:40:33;15.1;;;6.8;;
23360;SDS011;11852;50.082;18.554;2023-06-19T05:41:39;13.5;;;6.3;;
23360;SDS011;11852;50.082;18.554;2023-06-19T05:42:44;13.9;;;5.6;;
23360;SDS011;11852;50.082;18.554;2023-06-19T05:43:49;13.6;;;5.1;;
23360;SDS011;11852;50.082;18.554;2023-06-19T05:44:54;11.8;;;5.6;;
23360;SDS011;11852;50.082;18.554;2023-06-19T05:45:59;16.9;;;5.7;;
23360;SDS011;11852;50.082;18.554;2023-06-19T05:47:04;15.2;;;5.9;;
23360;SDS011;11852;50.082;18.554;2023-06-19T05:48:09;13.9;;;5.8;;
23360;SDS011;11852;50.082;18.554;2023-06-19T05:49:13;13.3;;;5.5;;
23360;SDS011;11852;50.082;18.554;2023-06-19T05:50:18;11.7;;;5.7;;
23360;SDS011;11852;50.082;18.554;2023-06-19T05:51:23;12.4;;;5.4;;
23360;SDS011;11852;50.082;18.554;2023-06-19T05:52:28;13.0;;;5.6;;
23360;SDS011;11852;50.082;18.554;2023-06-19T05:53:33;10.2;;;5.2;;
23360;SDS011;11852;50.082;18.554;2023-06-19T05:54:38;11.6;;;5.4;;
23360;SDS011;11852;50.082;18.554;2023-06-19T05:55:43;10.0;;;5.8;;
23360;SDS011;11852;50.082;18.554;2023-06-19T05:56:49;10.3;;;5.5;;
23360;SDS011;11852;50.082;18.554;2023-06-19T05:57:56;9.6;;;5.6;;
23360;SDS011;11852;50.082;18.554;2023-06-19T05:59:01;11.6;;;5.8;;
23360;SDS011;11852;50.082;18.554;2023-06-19T06:00:06;9.3;;;5.8;;
23360;SDS011;11852;50.082;18.554;2023-06-19T06:01:12;10.7;;;5.7;;
23360;SDS011;11852;50.082;18.554;2023-06-19T06:02:17;9.3;;;5.7;;
23360;SDS011;11852;50.082;18.554;2023-06-19T06:03:22;9.8;;;5.8;;
23360;SDS011;11852;50.082;18.554;2023-06-19T06:04:28;11.4;;;6.1;;
23360;SDS011;11852;50.082;18.554;2023-06-19T06:05:36;11.1;;;6.2;;
23360;SDS011;11852;50.082;18.554;2023-06-19T06:06:42;10.0;;;5.6;;
23360;SDS011;11852;50.082;18.554;2023-06-19T06:07:47;9.2;;;5.6;;
23360;SDS011;11852;50.082;18.554;2023-06-19T06:08:52;10.0;;;5.7;;
23360;SDS011;11852;50.082;18.554;2023-06-19T06:09:57;10.1;;;5.6;;
23360;SDS011;11852;50.082;18.554;2023-06-19T06:11:03;12.1;;;5.8;;
23360;SDS011;11852;50.082;18.554;2023-06-19T06:12:08;9.4;;;5.5;;
23360;SDS011;11852;50.082;18.554;2023-06-19T06:13:13;9.0;;;5.7;;
23360;SDS011;11852;50.082;18.554;2023-06-19T06:14:18;12.1;;;6.0;;
23360;SDS011;11852;50.082;18.554;2023-06-19T06:15:23;11.0;;;6.3;;
23360;SDS011;11852;50.082;18.554;2023-06-19T06:16:27;11.2;;;5.6;;
23360;SDS011;11852;50.082;18.554;2023-06-19T06:17:33;10.5;;;6.1;;
23360;SDS011;11852;50.082;18.554;2023-06-19T06:18:38;14.7;;;6.1;;
23360;SDS011;11852;50.082;18.554;2023-06-19T06:19:45;9.2;;;5.7;;
23360;SDS011;11852;50.082;18.554;2023-06-19T06:20:50;10.8;;;5.8;;
23360;SDS011;11852;50.082;18.554;2023-06-19T06:21:56;11.1;;;6.0;;
23360;SDS011;11852;50.082;18.554;2023-06-19T06:23:01;10.9;;;5.3;;
23360;SDS011;11852;50.082;18.554;2023-06-19T06:24:07;11.2;;;5.6;;
23360;SDS011;11852;50.082;18.554;2023-06-19T06:25:12;11.4;;;5.5;;
23360;SDS011;11852;50.082;18.554;2023-06-19T06:26:17;12.0;;;5.5;;
23360;SDS011;11852;50.082;18.554;2023-06-19T06:27:22;10.8;;;5.5;;
23360;SDS011;11852;50.082;18.554;2023-06-19T06:28:27;9.7;;;5.3;;
23360;SDS011;11852;50.082;18.554;2023-06-19T06:29:32;10.6;;;5.2;;
23360;SDS011;11852;50.082;18.554;2023-06-19T06:30:37;13.8;;;5.6;;
23360;SDS011;11852;50.082;18.554;2023-06-19T06:31:45;7.5;;;5.2;;
23360;SDS011;11852;50.082;18.554;2023-06-19T06:32:47;10.2;;;4.9;;
23360;SDS011;11852;50.082;18.554;2023-06-19T06:33:52;11.0;;;5.3;;
23360;SDS011;11852;50.082;18.554;2023-06-19T06:34:58;13.6;;;5.0;;
23360;SDS011;11852;50.082;18.554;2023-06-19T06:36:04;10.6;;;5.0;;